Time,TemperatureF,DewpointF,PressureIn,WindDirection,WindDirectionDegrees,WindSpeedMPH,WindSpeedGustMPH,Humidity,HourlyPrecipIn,Conditions,Clouds,dailyrainin,SoftwareType,DateUTC
2013-12-04 00:12:00,30.0,29.0,29.91,WNW,296,3.0,6.0,96,0.00,,,0.00,,2013-12-04 05:12:00,
2013-12-04 00:23:00,30.0,29.0,29.91,NW,305,3.0,7.0,96,0.00,,,0.00,,2013-12-04 05:23:00,
2013-12-04 00:42:00,30.0,29.0,29.91,NW,304,4.0,8.0,95,0.00,,,0.00,,2013-12-04 05:42:00,
2013-12-04 00:53:00,31.0,30.0,29.91,West,262,3.0,7.0,95,0.00,,,0.00,,2013-12-04 05:53:00,
2013-12-04 01:22:00,31.0,29.0,29.92,West,259,2.0,6.0,94,0.00,,,0.00,,2013-12-04 06:22:00,
2013-12-04 01:42:00,31.0,29.0,29.92,NW,305,2.0,5.0,93,0.00,,,0.00,,2013-12-04 06:42:00,
2013-12-04 01:52:00,31.0,29.0,29.92,WNW,299,2.0,6.0,92,0.00,,,0.00,,2013-12-04 06:52:00,
2013-12-04 02:22:00,31.0,29.0,29.93,WSW,244,2.0,5.0,91,0.00,,,0.00,,2013-12-04 07:22:00,
2013-12-04 02:42:00,31.0,28.0,29.93,WNW,291,1.0,8.0,90,0.00,,,0.00,,2013-12-04 07:42:00,
2013-12-04 02:52:00,30.0,27.0,30.00,North,355,3.0,10.0,89,0.00,,,0.00,,2013-12-04 07:52:00,
2013-12-04 03:11:00,30.0,27.0,30.01,NNW,333,2.0,8.0,88,0.00,,,0.00,,2013-12-04 08:11:00,
2013-12-04 03:22:00,31.0,28.0,29.94,NNW,327,5.0,10.0,87,0.00,,,0.00,,2013-12-04 08:22:00,
2013-12-04 03:42:00,31.0,27.0,29.94,NW,322,4.0,9.0,86,0.00,,,0.00,,2013-12-04 08:42:00,
2013-12-04 03:52:00,30.0,26.0,29.94,WNW,301,4.0,9.0,86,0.00,,,0.00,,2013-12-04 08:52:00,
2013-12-04 04:11:00,30.0,26.0,29.94,NW,306,6.0,12.0,85,0.00,,,0.00,,2013-12-04 09:11:00,
2013-12-04 04:22:00,30.0,26.0,29.95,NW,317,4.0,11.0,85,0.00,,,0.00,,2013-12-04 09:22:00,
2013-12-04 04:43:00,30.0,26.0,29.95,NW,308,6.0,14.0,84,0.00,,,0.00,,2013-12-04 09:43:00,
2013-12-04 04:54:00,29.0,25.0,29.96,WSW,237,5.0,12.0,85,0.00,,,0.00,,2013-12-04 09:54:00,
2013-12-04 05:12:00,29.0,25.0,29.96,WNW,289,6.0,13.0,84,0.00,,,0.00,,2013-12-04 10:12:00,
2013-12-04 05:23:00,29.0,24.0,29.96,West,276,6.0,10.0,82,0.00,,,0.00,,2013-12-04 10:23:00,
2013-12-04 05:43:00,29.0,24.0,29.97,West,269,5.0,10.0,81,0.00,,,0.00,,2013-12-04 10:43:00,
2013-12-04 05:53:00,29.0,23.0,29.97,NNW,346,5.0,13.0,79,0.00,,,0.00,,2013-12-04 10:53:00,
2013-12-04 06:12:00,28.0,22.0,30.04,NW,310,4.0,8.0,79,0.00,,,0.00,,2013-12-04 11:12:00,
2013-12-04 06:23:00,28.0,23.0,30.05,North,354,3.0,6.0,80,0.00,,,0.00,,2013-12-04 11:23:00,
2013-12-04 06:42:00,28.0,23.0,29.99,NNW,334,2.0,8.0,81,0.00,,,0.00,,2013-12-04 11:42:00,
2013-12-04 06:53:00,28.0,23.0,30.00,SW,230,3.0,7.0,81,0.00,,,0.00,,2013-12-04 11:53:00,
2013-12-04 07:12:00,27.0,22.0,30.01,West,268,4.0,8.0,82,0.00,,,0.00,,2013-12-04 12:12:00,
2013-12-04 07:22:00,28.0,24.0,30.01,NW,310,4.0,8.0,83,0.00,,,0.00,,2013-12-04 12:22:00,
2013-12-04 07:42:00,28.0,23.0,30.03,West,259,5.0,12.0,82,0.00,,,0.00,,2013-12-04 12:42:00,
2013-12-04 07:52:00,28.0,24.0,30.03,NW,305,2.0,8.0,83,0.00,,,0.00,,2013-12-04 12:52:00,
2013-12-04 08:11:00,28.0,24.0,30.03,WSW,256,5.0,14.0,83,0.00,,,0.00,,2013-12-04 13:11:00,
2013-12-04 08:22:00,28.0,24.0,30.03,West,271,5.0,10.0,83,0.00,,,0.00,,2013-12-04 13:22:00,
2013-12-04 08:42:00,28.0,24.0,30.03,West,265,4.0,8.0,83,0.00,,,0.00,,2013-12-04 13:42:00,
2013-12-04 08:52:00,28.0,23.0,30.03,WNW,289,4.0,8.0,82,0.00,,,0.00,,2013-12-04 13:52:00,
2013-12-04 09:12:00,29.0,24.0,30.04,WNW,296,4.0,9.0,81,0.00,,,0.00,,2013-12-04 14:12:00,
2013-12-04 09:22:00,29.0,24.0,30.12,NW,307,3.0,9.0,81,0.00,,,0.00,,2013-12-04 14:22:00,
2013-12-04 09:42:00,29.0,24.0,30.12,WNW,290,3.0,11.0,81,0.00,,,0.00,,2013-12-04 14:42:00,
2013-12-04 09:52:00,30.0,25.0,30.06,West,270,3.0,7.0,80,0.00,,,0.00,,2013-12-04 14:52:00,
2013-12-04 10:12:00,31.0,25.0,30.06,WSW,252,3.0,10.0,79,0.00,,,0.00,,2013-12-04 15:12:00,
2013-12-04 10:22:00,31.0,25.0,30.06,West,270,3.0,9.0,79,0.00,,,0.00,,2013-12-04 15:22:00,
2013-12-04 10:43:00,31.0,25.0,30.06,NW,308,4.0,7.0,79,0.00,,,0.00,,2013-12-04 15:43:00,
2013-12-04 10:54:00,32.0,26.0,30.05,West,266,3.0,7.0,78,0.00,,,0.00,,2013-12-04 15:54:00,
2013-12-04 11:13:00,32.0,26.0,30.05,NNW,347,4.0,9.0,78,0.00,,,0.00,,2013-12-04 16:13:00,
2013-12-04 11:23:00,32.0,26.0,30.05,East,99,4.0,8.0,78,0.00,,,0.00,,2013-12-04 16:23:00,
2013-12-04 11:43:00,32.0,26.0,30.05,WNW,284,4.0,6.0,78,0.00,,,0.00,,2013-12-04 16:43:00,
2013-12-04 11:53:00,32.0,26.0,30.06,North,358,4.0,11.0,78,0.00,,,0.00,,2013-12-04 16:53:00,
2013-12-04 12:12:00,33.0,27.0,30.05,WNW,291,4.0,8.0,77,0.00,,,0.00,,2013-12-04 17:12:00,
2013-12-04 12:22:00,34.0,27.0,30.04,WNW,289,2.0,6.0,76,0.00,,,0.00,,2013-12-04 17:22:00,
2013-12-04 12:43:00,34.0,27.0,30.11,NNE,25,2.0,5.0,74,0.00,,,0.00,,2013-12-04 17:43:00,
2013-12-04 12:53:00,34.0,26.0,30.11,West,272,3.0,9.0,71,0.00,,,0.00,,2013-12-04 17:53:00,
2013-12-04 13:12:00,35.0,27.0,30.04,WNW,294,4.0,8.0,71,0.00,,,0.00,,2013-12-04 18:12:00,
2013-12-04 13:22:00,35.0,26.0,30.05,West,275,4.0,7.0,70,0.00,,,0.00,,2013-12-04 18:22:00,
2013-12-04 13:42:00,35.0,27.0,30.04,WNW,291,3.0,9.0,71,0.00,,,0.00,,2013-12-04 18:42:00,
2013-12-04 13:52:00,36.0,26.0,30.04,West,266,3.0,7.0,68,0.00,,,0.00,,2013-12-04 18:52:00,
2013-12-04 14:11:00,37.0,27.0,30.04,NNW,329,2.0,8.0,67,0.00,,,0.00,,2013-12-04 19:11:00,
2013-12-04 14:22:00,37.0,26.0,30.05,WNW,286,2.0,6.0,65,0.00,,,0.00,,2013-12-04 19:22:00,
2013-12-04 14:42:00,37.0,26.0,30.04,WNW,300,2.0,6.0,64,0.00,,,0.00,,2013-12-04 19:42:00,
2013-12-04 14:52:00,38.0,27.0,30.04,NNW,339,2.0,5.0,64,0.00,,,0.00,,2013-12-04 19:52:00,
2013-12-04 15:12:00,38.0,27.0,30.06,NNW,336,3.0,7.0,63,0.00,,,0.00,,2013-12-04 20:12:00,
2013-12-04 15:22:00,37.0,26.0,30.06,NW,305,2.0,6.0,65,0.00,,,0.00,,2013-12-04 20:22:00,
2013-12-04 15:42:00,35.0,26.0,30.14,WNW,288,0.0,4.0,68,0.00,,,0.00,,2013-12-04 20:42:00,
2013-12-04 15:52:00,36.0,27.0,30.08,West,272,1.0,3.0,69,0.00,,,0.00,,2013-12-04 20:52:00,
2013-12-04 16:11:00,35.0,26.0,30.07,WSW,252,1.0,4.0,70,0.00,,,0.00,,2013-12-04 21:11:00,
2013-12-04 16:22:00,35.0,26.0,30.07,West,268,2.0,4.0,70,0.00,,,0.00,,2013-12-04 21:22:00,
2013-12-04 16:44:00,35.0,27.0,30.08,WNW,287,2.0,6.0,71,0.00,,,0.00,,2013-12-04 21:44:00,
2013-12-04 16:54:00,34.0,26.0,30.09,WSW,242,1.0,4.0,73,0.00,,,0.00,,2013-12-04 21:54:00,
2013-12-04 17:14:00,34.0,27.0,30.09,WNW,291,1.0,2.0,74,0.00,,,0.00,,2013-12-04 22:14:00,
2013-12-04 17:23:00,33.0,26.0,30.09,WNW,290,1.0,3.0,75,0.00,,,0.00,,2013-12-04 22:23:00,
2013-12-04 17:43:00,33.0,26.0,30.11,WNW,289,1.0,3.0,76,0.00,,,0.00,,2013-12-04 22:43:00,
2013-12-04 17:53:00,34.0,27.0,30.11,West,263,1.0,4.0,75,0.00,,,0.00,,2013-12-04 22:53:00,
2013-12-04 18:12:00,35.0,27.0,30.11,WNW,303,1.0,5.0,73,0.00,,,0.00,,2013-12-04 23:12:00,
2013-12-04 18:22:00,35.0,27.0,30.11,West,274,1.0,4.0,72,0.00,,,0.00,,2013-12-04 23:22:00,
2013-12-04 18:42:00,34.0,26.0,30.18,West,266,1.0,4.0,73,0.00,,,0.00,,2013-12-04 23:42:00,
2013-12-04 18:53:00,34.0,26.0,30.11,WNW,291,0.0,2.0,73,0.00,,,0.00,,2013-12-04 23:53:00,
2013-12-04 19:11:00,33.0,26.0,30.11,West,262,0.0,1.0,75,0.00,,,0.00,,2013-12-05 00:11:00,
2013-12-04 19:22:00,33.0,27.0,30.11,WNW,284,1.0,3.0,77,0.00,,,0.00,,2013-12-05 00:22:00,
2013-12-04 19:42:00,32.0,26.0,30.11,WSW,252,0.0,2.0,78,0.00,,,0.00,,2013-12-05 00:42:00,
2013-12-04 19:52:00,32.0,26.0,30.11,WSW,247,1.0,1.0,79,0.00,,,0.00,,2013-12-05 00:52:00,
2013-12-04 20:12:00,31.0,26.0,30.12,WSW,247,0.0,1.0,82,0.00,,,0.00,,2013-12-05 01:12:00,
2013-12-04 20:22:00,31.0,26.0,30.12,WSW,248,0.0,1.0,82,0.00,,,0.00,,2013-12-05 01:22:00,
2013-12-04 20:42:00,30.0,26.0,30.13,WSW,248,0.0,1.0,84,0.00,,,0.00,,2013-12-05 01:42:00,
2013-12-04 20:52:00,30.0,26.0,30.13,WSW,248,0.0,1.0,84,0.00,,,0.00,,2013-12-05 01:52:00,
2013-12-04 21:11:00,30.0,26.0,30.13,WSW,247,0.0,1.0,86,0.00,,,0.00,,2013-12-05 02:11:00,
2013-12-04 21:22:00,30.0,27.0,30.13,WSW,248,0.0,1.0,87,0.00,,,0.00,,2013-12-05 02:22:00,
2013-12-04 22:12:00,30.0,27.0,30.13,WSW,247,0.0,1.0,89,0.00,,,0.00,,2013-12-05 03:12:00,
2013-12-04 22:22:00,30.0,27.0,30.13,WSW,248,0.0,1.0,89,0.00,,,0.00,,2013-12-05 03:22:00,
2013-12-04 22:43:00,30.0,27.0,30.13,WSW,248,1.0,1.0,88,0.00,,,0.00,,2013-12-05 03:43:00,
2013-12-04 22:54:00,29.0,27.0,30.13,WSW,248,0.0,1.0,91,0.00,,,0.00,,2013-12-05 03:54:00,
2013-12-04 23:13:00,29.0,26.0,30.13,WSW,248,0.0,1.0,90,0.00,,,0.00,,2013-12-05 04:13:00,
2013-12-04 23:23:00,29.0,26.0,30.13,West,263,1.0,2.0,90,0.00,,,0.00,,2013-12-05 04:23:00,
2013-12-04 23:43:00,30.0,27.0,30.14,WNW,282,0.0,1.0,90,0.00,,,0.00,,2013-12-05 04:43:00,
2013-12-04 23:53:00,31.0,28.0,30.14,West,263,0.0,2.0,88,0.00,,,0.00,,2013-12-05 04:53:00,